Parishville Center, New York
Current Conditions -  °F | °C
As of 3:53 AM on Thursday 23 Oct 2014 (Local Time) from KMSS Reporting Station
Broken Clouds Broken Clouds  
Wind Chill: 37°   Ceiling: 6000
Heat Index: 43°   Visibility: 10mi
Dew Point: 35°   Wind: 10mph
Humidity: 74%   Direction: 40°NE
Pressure: 30.12"   Gusts: NA
Location:  44.6469°N, 74.9157°W
Report Text: KMSS 230753Z AUTO 04009KT 10SM FEW024 BKN060 06/02 A3012 RMK AO2 SLP202 T00610017
Loading
Personal Weather Stations






























Interactive Weather Map
Tropical Storm Tracking
New forecast layout! Learn more

10-Day Weather Forecast

Advertisements
Track Severe Weather on mobile